sensor_id;sensor_type;location;lat;lon;timestamp;P1;durP1;ratioP1;P2;durP2;ratioP2
22549;SDS011;11441;57.164;-2.120;2023-04-16T00:00:37;21.25;;;5.05;;
22549;SDS011;11441;57.164;-2.120;2023-04-16T00:08:37;12.98;;;4.82;;
22549;SDS011;11441;57.164;-2.120;2023-04-16T00:11:04;16.58;;;4.45;;
22549;SDS011;11441;57.164;-2.120;2023-04-16T00:13:31;20.48;;;5.90;;
22549;SDS011;11441;57.164;-2.120;2023-04-16T00:15:58;21.23;;;6.82;;
22549;SDS011;11441;57.164;-2.120;2023-04-16T00:18:24;15.00;;;5.32;;
22549;SDS011;11441;57.164;-2.120;2023-04-16T00:20:52;16.58;;;4.20;;
22549;SDS011;11441;57.164;-2.120;2023-04-16T00:23:21;24.60;;;5.95;;
22549;SDS011;11441;57.164;-2.120;2023-04-16T00:25:48;19.67;;;5.30;;
22549;SDS011;11441;57.164;-2.120;2023-04-16T00:28:14;22.48;;;6.10;;
22549;SDS011;11441;57.164;-2.120;2023-04-16T00:30:41;21.05;;;5.38;;
22549;SDS011;11441;57.164;-2.120;2023-04-16T00:33:08;17.42;;;5.28;;
22549;SDS011;11441;57.164;-2.120;2023-04-16T00:35:35;23.25;;;6.30;;
22549;SDS011;11441;57.164;-2.120;2023-04-16T00:38:02;24.58;;;7.22;;
22549;SDS011;11441;57.164;-2.120;2023-04-16T00:40:28;28.33;;;8.27;;
22549;SDS011;11441;57.164;-2.120;2023-04-16T00:43:21;20.00;;;7.20;;
22549;SDS011;11441;57.164;-2.120;2023-04-16T00:45:55;25.33;;;7.25;;
22549;SDS011;11441;57.164;-2.120;2023-04-16T00:48:22;26.60;;;7.80;;
22549;SDS011;11441;57.164;-2.120;2023-04-16T00:50:53;18.55;;;7.28;;
22549;SDS011;11441;57.164;-2.120;2023-04-16T00:53:20;23.08;;;7.80;;
22549;SDS011;11441;57.164;-2.120;2023-04-16T00:55:47;29.77;;;8.00;;
22549;SDS011;11441;57.164;-2.120;2023-04-16T00:58:15;20.67;;;7.45;;
22549;SDS011;11441;57.164;-2.120;2023-04-16T01:00:42;29.48;;;7.22;;
22549;SDS011;11441;57.164;-2.120;2023-04-16T01:03:43;19.58;;;6.63;;
22549;SDS011;11441;57.164;-2.120;2023-04-16T01:06:30;19.42;;;7.75;;
22549;SDS011;11441;57.164;-2.120;2023-04-16T01:08:57;25.27;;;7.72;;
22549;SDS011;11441;57.164;-2.120;2023-04-16T01:11:24;18.42;;;8.10;;
22549;SDS011;11441;57.164;-2.120;2023-04-16T01:13:51;21.02;;;7.72;;
22549;SDS011;11441;57.164;-2.120;2023-04-16T01:16:18;25.98;;;8.27;;
22549;SDS011;11441;57.164;-2.120;2023-04-16T01:18:45;19.65;;;6.78;;
22549;SDS011;11441;57.164;-2.120;2023-04-16T01:21:12;18.63;;;7.00;;
22549;SDS011;11441;57.164;-2.120;2023-04-16T01:23:38;19.77;;;8.40;;
22549;SDS011;11441;57.164;-2.120;2023-04-16T01:26:06;18.65;;;6.03;;
22549;SDS011;11441;57.164;-2.120;2023-04-16T01:28:32;19.40;;;6.78;;
22549;SDS011;11441;57.164;-2.120;2023-04-16T01:30:59;19.70;;;6.18;;
22549;SDS011;11441;57.164;-2.120;2023-04-16T01:34:04;22.42;;;6.05;;
22549;SDS011;11441;57.164;-2.120;2023-04-16T01:36:33;16.08;;;6.63;;
22549;SDS011;11441;57.164;-2.120;2023-04-16T01:38:59;17.08;;;6.85;;
22549;SDS011;11441;57.164;-2.120;2023-04-16T01:41:26;19.00;;;7.38;;
22549;SDS011;11441;57.164;-2.120;2023-04-16T01:43:53;19.63;;;7.45;;
22549;SDS011;11441;57.164;-2.120;2023-04-16T01:46:25;25.52;;;7.30;;
22549;SDS011;11441;57.164;-2.120;2023-04-16T01:48:54;25.60;;;7.25;;
22549;SDS011;11441;57.164;-2.120;2023-04-16T01:51:22;22.23;;;7.03;;
22549;SDS011;11441;57.164;-2.120;2023-04-16T01:53:49;24.92;;;7.70;;
22549;SDS011;11441;57.164;-2.120;2023-04-16T01:56:16;31.55;;;8.60;;
22549;SDS011;11441;57.164;-2.120;2023-04-16T01:58:43;17.17;;;6.82;;
22549;SDS011;11441;57.164;-2.120;2023-04-16T02:01:12;23.02;;;7.63;;
22549;SDS011;11441;57.164;-2.120;2023-04-16T02:03:39;20.17;;;6.55;;
22549;SDS011;11441;57.164;-2.120;2023-04-16T02:06:07;19.23;;;6.68;;
22549;SDS011;11441;57.164;-2.120;2023-04-16T02:08:34;26.67;;;8.13;;
22549;SDS011;11441;57.164;-2.120;2023-04-16T02:11:01;30.05;;;7.70;;
22549;SDS011;11441;57.164;-2.120;2023-04-16T02:13:28;24.73;;;8.25;;
22549;SDS011;11441;57.164;-2.120;2023-04-16T02:15:55;15.15;;;7.10;;
22549;SDS011;11441;57.164;-2.120;2023-04-16T02:19:00;26.85;;;7.47;;
22549;SDS011;11441;57.164;-2.120;2023-04-16T02:21:30;28.77;;;8.90;;
22549;SDS011;11441;57.164;-2.120;2023-04-16T02:23:57;22.13;;;7.15;;
22549;SDS011;11441;57.164;-2.120;2023-04-16T02:26:27;18.10;;;7.87;;
22549;SDS011;11441;57.164;-2.120;2023-04-16T02:29:00;20.58;;;6.07;;
22549;SDS011;11441;57.164;-2.120;2023-04-16T02:31:45;21.27;;;6.97;;
22549;SDS011;11441;57.164;-2.120;2023-04-16T02:34:13;13.07;;;5.55;;
22549;SDS011;11441;57.164;-2.120;2023-04-16T02:36:40;23.48;;;6.95;;
22549;SDS011;11441;57.164;-2.120;2023-04-16T02:39:07;17.50;;;6.55;;
22549;SDS011;11441;57.164;-2.120;2023-04-16T02:41:34;19.13;;;6.50;;
22549;SDS011;11441;57.164;-2.120;2023-04-16T02:44:01;14.43;;;6.32;;
22549;SDS011;11441;57.164;-2.120;2023-04-16T02:46:28;20.73;;;6.15;;
22549;SDS011;11441;57.164;-2.120;2023-04-16T02:48:55;16.83;;;6.70;;
22549;SDS011;11441;57.164;-2.120;2023-04-16T02:51:21;16.25;;;6.05;;
22549;SDS011;11441;57.164;-2.120;2023-04-16T02:53:48;17.65;;;6.93;;
22549;SDS011;11441;57.164;-2.120;2023-04-16T02:56:15;10.68;;;5.28;;
22549;SDS011;11441;57.164;-2.120;2023-04-16T02:58:42;18.57;;;7.03;;
22549;SDS011;11441;57.164;-2.120;2023-04-16T03:01:09;17.43;;;7.43;;
22549;SDS011;11441;57.164;-2.120;2023-04-16T03:03:36;22.92;;;6.90;;
22549;SDS011;11441;57.164;-2.120;2023-04-16T03:06:03;15.27;;;7.13;;
22549;SDS011;11441;57.164;-2.120;2023-04-16T03:08:30;23.65;;;8.25;;
22549;SDS011;11441;57.164;-2.120;2023-04-16T03:10:57;20.48;;;7.45;;
22549;SDS011;11441;57.164;-2.120;2023-04-16T03:13:24;19.05;;;6.90;;
22549;SDS011;11441;57.164;-2.120;2023-04-16T03:15:51;19.67;;;6.97;;
22549;SDS011;11441;57.164;-2.120;2023-04-16T03:18:18;17.03;;;6.30;;
22549;SDS011;11441;57.164;-2.120;2023-04-16T03:20:45;24.10;;;8.37;;
22549;SDS011;11441;57.164;-2.120;2023-04-16T03:23:11;18.43;;;7.50;;
22549;SDS011;11441;57.164;-2.120;2023-04-16T03:25:38;19.77;;;7.43;;
22549;SDS011;11441;57.164;-2.120;2023-04-16T03:28:07;17.30;;;7.90;;
22549;SDS011;11441;57.164;-2.120;2023-04-16T03:30:35;23.85;;;7.85;;
22549;SDS011;11441;57.164;-2.120;2023-04-16T03:33:04;24.70;;;7.40;;
22549;SDS011;11441;57.164;-2.120;2023-04-16T03:35:31;20.08;;;7.60;;
22549;SDS011;11441;57.164;-2.120;2023-04-16T03:37:58;23.23;;;7.75;;
22549;SDS011;11441;57.164;-2.120;2023-04-16T03:40:26;29.42;;;9.25;;
22549;SDS011;11441;57.164;-2.120;2023-04-16T03:42:53;20.17;;;8.63;;
22549;SDS011;11441;57.164;-2.120;2023-04-16T03:45:20;17.10;;;7.35;;
22549;SDS011;11441;57.164;-2.120;2023-04-16T03:47:49;16.42;;;6.93;;
22549;SDS011;11441;57.164;-2.120;2023-04-16T03:50:21;29.83;;;9.70;;
22549;SDS011;11441;57.164;-2.120;2023-04-16T03:52:47;24.80;;;8.55;;
22549;SDS011;11441;57.164;-2.120;2023-04-16T03:55:16;24.83;;;7.95;;
22549;SDS011;11441;57.164;-2.120;2023-04-16T03:57:43;23.33;;;7.68;;
22549;SDS011;11441;57.164;-2.120;2023-04-16T04:00:12;22.23;;;8.88;;
22549;SDS011;11441;57.164;-2.120;2023-04-16T04:02:39;23.65;;;8.10;;
22549;SDS011;11441;57.164;-2.120;2023-04-16T04:05:26;29.38;;;9.23;;
22549;SDS011;11441;57.164;-2.120;2023-04-16T04:07:53;28.73;;;8.52;;
22549;SDS011;11441;57.164;-2.120;2023-04-16T04:10:19;23.65;;;8.80;;
22549;SDS011;11441;57.164;-2.120;2023-04-16T04:12:46;22.27;;;7.95;;
22549;SDS011;11441;57.164;-2.120;2023-04-16T04:15:13;25.27;;;9.05;;
22549;SDS011;11441;57.164;-2.120;2023-04-16T04:17:41;21.27;;;8.73;;
22549;SDS011;11441;57.164;-2.120;2023-04-16T04:20:08;24.17;;;9.77;;
22549;SDS011;11441;57.164;-2.120;2023-04-16T04:22:35;19.98;;;8.40;;
22549;SDS011;11441;57.164;-2.120;2023-04-16T04:25:02;26.40;;;9.73;;
22549;SDS011;11441;57.164;-2.120;2023-04-16T04:27:31;24.77;;;8.70;;
22549;SDS011;11441;57.164;-2.120;2023-04-16T04:29:58;19.23;;;9.48;;
22549;SDS011;11441;57.164;-2.120;2023-04-16T04:32:26;19.35;;;8.50;;
22549;SDS011;11441;57.164;-2.120;2023-04-16T04:34:53;20.08;;;7.25;;
22549;SDS011;11441;57.164;-2.120;2023-04-16T04:37:19;24.90;;;8.68;;
22549;SDS011;11441;57.164;-2.120;2023-04-16T04:39:47;17.80;;;7.32;;
22549;SDS011;11441;57.164;-2.120;2023-04-16T04:42:15;15.25;;;7.50;;
22549;SDS011;11441;57.164;-2.120;2023-04-16T04:44:44;26.40;;;8.35;;
22549;SDS011;11441;57.164;-2.120;2023-04-16T04:47:11;18.33;;;6.60;;
22549;SDS011;11441;57.164;-2.120;2023-04-16T04:49:39;19.45;;;8.00;;
22549;SDS011;11441;57.164;-2.120;2023-04-16T04:52:06;21.90;;;7.13;;
22549;SDS011;11441;57.164;-2.120;2023-04-16T04:54:33;15.15;;;6.68;;
22549;SDS011;11441;57.164;-2.120;2023-04-16T04:57:00;20.58;;;7.75;;
22549;SDS011;11441;57.164;-2.120;2023-04-16T04:59:28;16.40;;;7.05;;
22549;SDS011;11441;57.164;-2.120;2023-04-16T05:01:55;13.57;;;7.03;;
22549;SDS011;11441;57.164;-2.120;2023-04-16T05:04:22;23.35;;;8.48;;
22549;SDS011;11441;57.164;-2.120;2023-04-16T05:09:34;23.77;;;8.38;;
22549;SDS011;11441;57.164;-2.120;2023-04-16T05:12:01;20.05;;;8.70;;
22549;SDS011;11441;57.164;-2.120;2023-04-16T05:14:29;17.25;;;6.28;;
22549;SDS011;11441;57.164;-2.120;2023-04-16T05:16:56;17.63;;;7.38;;
22549;SDS011;11441;57.164;-2.120;2023-04-16T05:19:22;15.90;;;6.68;;
22549;SDS011;11441;57.164;-2.120;2023-04-16T05:21:49;16.90;;;7.13;;
22549;SDS011;11441;57.164;-2.120;2023-04-16T05:24:16;16.48;;;6.60;;
22549;SDS011;11441;57.164;-2.120;2023-04-16T05:26:43;15.15;;;6.20;;
22549;SDS011;11441;57.164;-2.120;2023-04-16T05:29:10;20.85;;;7.68;;
22549;SDS011;11441;57.164;-2.120;2023-04-16T05:31:37;12.35;;;6.22;;
22549;SDS011;11441;57.164;-2.120;2023-04-16T05:34:04;23.20;;;7.57;;
22549;SDS011;11441;57.164;-2.120;2023-04-16T05:36:30;15.70;;;6.80;;
22549;SDS011;11441;57.164;-2.120;2023-04-16T05:38:57;19.85;;;7.82;;
22549;SDS011;11441;57.164;-2.120;2023-04-16T05:41:24;20.77;;;7.78;;
22549;SDS011;11441;57.164;-2.120;2023-04-16T05:43:51;22.52;;;7.93;;
22549;SDS011;11441;57.164;-2.120;2023-04-16T05:46:17;17.08;;;7.32;;
22549;SDS011;11441;57.164;-2.120;2023-04-16T05:48:44;21.05;;;6.90;;
22549;SDS011;11441;57.164;-2.120;2023-04-16T05:51:11;23.15;;;6.93;;
22549;SDS011;11441;57.164;-2.120;2023-04-16T05:56:23;16.35;;;6.57;;
22549;SDS011;11441;57.164;-2.120;2023-04-16T05:58:51;21.55;;;8.05;;
22549;SDS011;11441;57.164;-2.120;2023-04-16T06:01:17;22.63;;;8.75;;
22549;SDS011;11441;57.164;-2.120;2023-04-16T06:03:44;29.38;;;9.70;;
22549;SDS011;11441;57.164;-2.120;2023-04-16T06:06:11;18.98;;;7.70;;
22549;SDS011;11441;57.164;-2.120;2023-04-16T06:08:38;22.65;;;8.13;;
22549;SDS011;11441;57.164;-2.120;2023-04-16T06:11:05;21.77;;;8.20;;
22549;SDS011;11441;57.164;-2.120;2023-04-16T06:13:32;29.15;;;10.77;;
22549;SDS011;11441;57.164;-2.120;2023-04-16T06:15:58;15.60;;;8.98;;
22549;SDS011;11441;57.164;-2.120;2023-04-16T06:18:25;21.77;;;9.93;;
22549;SDS011;11441;57.164;-2.120;2023-04-16T06:20:52;25.75;;;9.55;;
22549;SDS011;11441;57.164;-2.120;2023-04-16T06:23:19;21.75;;;9.35;;
22549;SDS011;11441;57.164;-2.120;2023-04-16T06:26:04;21.95;;;9.30;;
22549;SDS011;11441;57.164;-2.120;2023-04-16T06:28:30;15.00;;;8.00;;
22549;SDS011;11441;57.164;-2.120;2023-04-16T06:30:58;16.48;;;7.32;;
22549;SDS011;11441;57.164;-2.120;2023-04-16T06:33:25;21.10;;;9.18;;
22549;SDS011;11441;57.164;-2.120;2023-04-16T06:35:52;19.45;;;8.65;;
22549;SDS011;11441;57.164;-2.120;2023-04-16T06:38:19;16.48;;;8.90;;
22549;SDS011;11441;57.164;-2.120;2023-04-16T06:40:47;24.05;;;9.40;;
22549;SDS011;11441;57.164;-2.120;2023-04-16T06:43:15;20.42;;;7.28;;
22549;SDS011;11441;57.164;-2.120;2023-04-16T06:45:43;19.90;;;8.90;;
22549;SDS011;11441;57.164;-2.120;2023-04-16T06:48:10;25.20;;;9.02;;
22549;SDS011;11441;57.164;-2.120;2023-04-16T06:50:37;17.98;;;8.18;;
22549;SDS011;11441;57.164;-2.120;2023-04-16T06:55:50;15.80;;;7.95;;
22549;SDS011;11441;57.164;-2.120;2023-04-16T07:01:03;15.30;;;6.38;;
22549;SDS011;11441;57.164;-2.120;2023-04-16T07:03:30;16.20;;;5.90;;
22549;SDS011;11441;57.164;-2.120;2023-04-16T07:05:57;21.60;;;6.60;;
22549;SDS011;11441;57.164;-2.120;2023-04-16T07:08:24;13.43;;;4.82;;
22549;SDS011;11441;57.164;-2.120;2023-04-16T07:10:51;19.30;;;5.28;;
22549;SDS011;11441;57.164;-2.120;2023-04-16T07:13:19;7.53;;;3.55;;
22549;SDS011;11441;57.164;-2.120;2023-04-16T07:15:47;13.00;;;3.67;;
22549;SDS011;11441;57.164;-2.120;2023-04-16T07:18:13;11.18;;;4.10;;
22549;SDS011;11441;57.164;-2.120;2023-04-16T07:20:41;12.35;;;2.85;;
22549;SDS011;11441;57.164;-2.120;2023-04-16T07:23:08;5.13;;;2.30;;
22549;SDS011;11441;57.164;-2.120;2023-04-16T07:25:34;7.65;;;2.05;;
22549;SDS011;11441;57.164;-2.120;2023-04-16T07:28:02;8.85;;;1.77;;
22549;SDS011;11441;57.164;-2.120;2023-04-16T07:30:29;4.63;;;1.92;;
22549;SDS011;11441;57.164;-2.120;2023-04-16T07:33:01;9.05;;;1.95;;
22549;SDS011;11441;57.164;-2.120;2023-04-16T07:35:31;7.38;;;2.10;;
22549;SDS011;11441;57.164;-2.120;2023-04-16T07:37:58;7.15;;;1.77;;
22549;SDS011;11441;57.164;-2.120;2023-04-16T07:40:25;6.95;;;1.80;;
22549;SDS011;11441;57.164;-2.120;2023-04-16T07:42:52;8.65;;;2.28;;
22549;SDS011;11441;57.164;-2.120;2023-04-16T07:45:19;9.45;;;2.05;;
22549;SDS011;11441;57.164;-2.120;2023-04-16T07:48:06;8.68;;;2.08;;
22549;SDS011;11441;57.164;-2.120;2023-04-16T07:50:33;9.98;;;2.58;;
22549;SDS011;11441;57.164;-2.120;2023-04-16T07:53:00;5.07;;;1.70;;
22549;SDS011;11441;57.164;-2.120;2023-04-16T07:58:12;9.02;;;1.70;;
22549;SDS011;11441;57.164;-2.120;2023-04-16T08:00:39;8.55;;;1.60;;
22549;SDS011;11441;57.164;-2.120;2023-04-16T08:03:06;4.53;;;0.90;;
22549;SDS011;11441;57.164;-2.120;2023-04-16T08:05:33;4.05;;;1.00;;
22549;SDS011;11441;57.164;-2.120;2023-04-16T08:08:00;3.30;;;0.73;;
22549;SDS011;11441;57.164;-2.120;2023-04-16T08:10:45;4.80;;;0.70;;
22549;SDS011;11441;57.164;-2.120;2023-04-16T08:13:12;2.50;;;0.50;;
22549;SDS011;11441;57.164;-2.120;2023-04-16T08:15:39;3.78;;;0.73;;
22549;SDS011;11441;57.164;-2.120;2023-04-16T08:18:06;3.55;;;0.70;;
22549;SDS011;11441;57.164;-2.120;2023-04-16T08:23:23;7.60;;;0.82;;
22549;SDS011;11441;57.164;-2.120;2023-04-16T08:26:08;5.82;;;1.30;;
22549;SDS011;11441;57.164;-2.120;2023-04-16T08:28:35;3.53;;;0.90;;
22549;SDS011;11441;57.164;-2.120;2023-04-16T08:31:20;1.23;;;0.60;;
22549;SDS011;11441;57.164;-2.120;2023-04-16T08:33:47;9.18;;;1.17;;
22549;SDS011;11441;57.164;-2.120;2023-04-16T08:36:33;2.70;;;0.98;;
22549;SDS011;11441;57.164;-2.120;2023-04-16T08:38:59;4.47;;;0.90;;
22549;SDS011;11441;57.164;-2.120;2023-04-16T08:41:26;3.13;;;1.33;;
22549;SDS011;11441;57.164;-2.120;2023-04-16T08:43:58;4.28;;;0.77;;
22549;SDS011;11441;57.164;-2.120;2023-04-16T08:46:26;1.73;;;0.63;;
22549;SDS011;11441;57.164;-2.120;2023-04-16T08:48:55;4.32;;;1.00;;
22549;SDS011;11441;57.164;-2.120;2023-04-16T08:51:24;1.55;;;0.55;;
22549;SDS011;11441;57.164;-2.120;2023-04-16T08:54:02;3.60;;;1.00;;
22549;SDS011;11441;57.164;-2.120;2023-04-16T08:56:30;2.42;;;0.60;;
22549;SDS011;11441;57.164;-2.120;2023-04-16T08:58:57;6.00;;;1.20;;
22549;SDS011;11441;57.164;-2.120;2023-04-16T09:01:27;1.70;;;1.00;;
22549;SDS011;11441;57.164;-2.120;2023-04-16T09:03:54;2.35;;;0.80;;
22549;SDS011;11441;57.164;-2.120;2023-04-16T09:06:22;3.85;;;0.60;;
22549;SDS011;11441;57.164;-2.120;2023-04-16T09:08:48;3.25;;;0.73;;
22549;SDS011;11441;57.164;-2.120;2023-04-16T09:11:54;3.25;;;0.50;;
22549;SDS011;11441;57.164;-2.120;2023-04-16T09:14:21;3.40;;;0.60;;
22549;SDS011;11441;57.164;-2.120;2023-04-16T09:16:48;2.83;;;0.70;;
22549;SDS011;11441;57.164;-2.120;2023-04-16T09:19:18;2.13;;;0.45;;
22549;SDS011;11441;57.164;-2.120;2023-04-16T09:21:46;2.95;;;0.50;;
22549;SDS011;11441;57.164;-2.120;2023-04-16T09:24:13;1.00;;;0.45;;
22549;SDS011;11441;57.164;-2.120;2023-04-16T09:26:40;4.53;;;0.50;;
22549;SDS011;11441;57.164;-2.120;2023-04-16T09:29:10;1.52;;;0.52;;
22549;SDS011;11441;57.164;-2.120;2023-04-16T09:31:37;3.50;;;0.95;;
22549;SDS011;11441;57.164;-2.120;2023-04-16T09:34:05;2.92;;;0.63;;
22549;SDS011;11441;57.164;-2.120;2023-04-16T09:36:34;5.28;;;0.60;;
22549;SDS011;11441;57.164;-2.120;2023-04-16T09:39:02;2.65;;;0.80;;
22549;SDS011;11441;57.164;-2.120;2023-04-16T09:41:30;5.85;;;1.25;;
22549;SDS011;11441;57.164;-2.120;2023-04-16T09:44:02;1.98;;;0.80;;
22549;SDS011;11441;57.164;-2.120;2023-04-16T09:46:30;2.28;;;0.47;;
22549;SDS011;11441;57.164;-2.120;2023-04-16T09:49:04;2.50;;;0.40;;
22549;SDS011;11441;57.164;-2.120;2023-04-16T09:51:36;1.52;;;0.40;;
22549;SDS011;11441;57.164;-2.120;2023-04-16T09:56:51;2.45;;;0.65;;
22549;SDS011;11441;57.164;-2.120;2023-04-16T09:59:22;2.20;;;0.63;;
22549;SDS011;11441;57.164;-2.120;2023-04-16T10:02:07;11.30;;;1.08;;
22549;SDS011;11441;57.164;-2.120;2023-04-16T10:04:50;3.65;;;0.63;;
22549;SDS011;11441;57.164;-2.120;2023-04-16T10:07:18;1.73;;;0.60;;
22549;SDS011;11441;57.164;-2.120;2023-04-16T10:09:47;1.58;;;0.43;;
22549;SDS011;11441;57.164;-2.120;2023-04-16T10:12:14;3.40;;;0.77;;
22549;SDS011;11441;57.164;-2.120;2023-04-16T10:14:41;2.15;;;0.30;;
22549;SDS011;11441;57.164;-2.120;2023-04-16T10:17:08;2.20;;;0.50;;
22549;SDS011;11441;57.164;-2.120;2023-04-16T10:19:35;3.95;;;0.50;;
22549;SDS011;11441;57.164;-2.120;2023-04-16T10:22:02;1.85;;;0.68;;
22549;SDS011;11441;57.164;-2.120;2023-04-16T10:24:31;0.30;;;0.30;;
22549;SDS011;11441;57.164;-2.120;2023-04-16T10:27:18;0.77;;;0.55;;
22549;SDS011;11441;57.164;-2.120;2023-04-16T10:29:45;2.15;;;0.38;;
22549;SDS011;11441;57.164;-2.120;2023-04-16T10:32:14;2.17;;;0.50;;
22549;SDS011;11441;57.164;-2.120;2023-04-16T10:34:43;5.47;;;0.60;;
22549;SDS011;11441;57.164;-2.120;2023-04-16T10:37:10;2.30;;;0.43;;
22549;SDS011;11441;57.164;-2.120;2023-04-16T10:39:38;2.92;;;0.47;;
22549;SDS011;11441;57.164;-2.120;2023-04-16T10:42:05;2.70;;;0.43;;
22549;SDS011;11441;57.164;-2.120;2023-04-16T10:44:34;2.60;;;0.70;;
22549;SDS011;11441;57.164;-2.120;2023-04-16T10:47:01;2.30;;;0.70;;
22549;SDS011;11441;57.164;-2.120;2023-04-16T10:49:35;6.35;;;0.82;;
22549;SDS011;11441;57.164;-2.120;2023-04-16T10:52:11;4.03;;;0.80;;
22549;SDS011;11441;57.164;-2.120;2023-04-16T10:57:28;4.82;;;0.75;;
22549;SDS011;11441;57.164;-2.120;2023-04-16T10:59:56;4.25;;;0.77;;
22549;SDS011;11441;57.164;-2.120;2023-04-16T11:02:43;3.72;;;0.82;;
22549;SDS011;11441;57.164;-2.120;2023-04-16T11:05:10;2.83;;;0.50;;
22549;SDS011;11441;57.164;-2.120;2023-04-16T11:07:43;3.78;;;0.88;;
22549;SDS011;11441;57.164;-2.120;2023-04-16T11:10:15;2.17;;;0.68;;
22549;SDS011;11441;57.164;-2.120;2023-04-16T11:12:42;1.45;;;0.73;;
22549;SDS011;11441;57.164;-2.120;2023-04-16T11:15:15;3.63;;;1.00;;
22549;SDS011;11441;57.164;-2.120;2023-04-16T11:18:02;1.33;;;0.32;;
22549;SDS011;11441;57.164;-2.120;2023-04-16T11:20:29;2.92;;;0.98;;
22549;SDS011;11441;57.164;-2.120;2023-04-16T11:22:56;2.95;;;0.75;;
22549;SDS011;11441;57.164;-2.120;2023-04-16T11:25:24;3.58;;;0.60;;
22549;SDS011;11441;57.164;-2.120;2023-04-16T11:27:55;3.63;;;1.00;;
22549;SDS011;11441;57.164;-2.120;2023-04-16T11:30:30;8.10;;;1.00;;
22549;SDS011;11441;57.164;-2.120;2023-04-16T11:33:09;4.97;;;1.10;;
22549;SDS011;11441;57.164;-2.120;2023-04-16T11:35:37;5.22;;;1.85;;
22549;SDS011;11441;57.164;-2.120;2023-04-16T11:38:31;3.83;;;1.13;;
22549;SDS011;11441;57.164;-2.120;2023-04-16T11:40:59;2.65;;;0.70;;
22549;SDS011;11441;57.164;-2.120;2023-04-16T11:43:25;4.07;;;1.02;;
22549;SDS011;11441;57.164;-2.120;2023-04-16T11:45:59;3.60;;;1.00;;
22549;SDS011;11441;57.164;-2.120;2023-04-16T11:48:51;2.70;;;0.60;;
22549;SDS011;11441;57.164;-2.120;2023-04-16T11:51:19;3.72;;;0.55;;
22549;SDS011;11441;57.164;-2.120;2023-04-16T11:56:28;8.07;;;0.88;;
22549;SDS011;11441;57.164;-2.120;2023-04-16T11:59:05;4.78;;;0.95;;
22549;SDS011;11441;57.164;-2.120;2023-04-16T12:01:39;4.32;;;1.30;;
22549;SDS011;11441;57.164;-2.120;2023-04-16T12:04:08;2.92;;;0.80;;
22549;SDS011;11441;57.164;-2.120;2023-04-16T12:06:35;3.35;;;1.15;;
22549;SDS011;11441;57.164;-2.120;2023-04-16T12:09:21;4.32;;;0.98;;
22549;SDS011;11441;57.164;-2.120;2023-04-16T12:11:51;3.95;;;1.02;;
22549;SDS011;11441;57.164;-2.120;2023-04-16T12:14:19;1.98;;;0.70;;
22549;SDS011;11441;57.164;-2.120;2023-04-16T12:16:46;3.03;;;0.73;;
22549;SDS011;11441;57.164;-2.120;2023-04-16T12:19:32;4.13;;;0.80;;
22549;SDS011;11441;57.164;-2.120;2023-04-16T12:21:59;5.03;;;1.85;;
22549;SDS011;11441;57.164;-2.120;2023-04-16T12:24:26;2.95;;;0.93;;
22549;SDS011;11441;57.164;-2.120;2023-04-16T12:26:57;1.63;;;0.68;;
22549;SDS011;11441;57.164;-2.120;2023-04-16T12:29:28;5.85;;;1.10;;
22549;SDS011;11441;57.164;-2.120;2023-04-16T12:31:55;1.77;;;0.93;;
22549;SDS011;11441;57.164;-2.120;2023-04-16T12:34:22;3.85;;;1.00;;
22549;SDS011;11441;57.164;-2.120;2023-04-16T12:37:08;3.40;;;1.40;;
22549;SDS011;11441;57.164;-2.120;2023-04-16T12:39:35;2.08;;;0.60;;
22549;SDS011;11441;57.164;-2.120;2023-04-16T12:42:02;1.73;;;0.60;;
22549;SDS011;11441;57.164;-2.120;2023-04-16T12:44:31;5.75;;;1.00;;
22549;SDS011;11441;57.164;-2.120;2023-04-16T12:46:58;3.03;;;0.73;;
22549;SDS011;11441;57.164;-2.120;2023-04-16T12:49:24;2.38;;;0.80;;
22549;SDS011;11441;57.164;-2.120;2023-04-16T12:51:51;4.15;;;1.20;;
22549;SDS011;11441;57.164;-2.120;2023-04-16T12:54:18;2.00;;;0.90;;
22549;SDS011;11441;57.164;-2.120;2023-04-16T12:56:45;4.68;;;0.95;;
22549;SDS011;11441;57.164;-2.120;2023-04-16T12:59:12;5.95;;;1.27;;
22549;SDS011;11441;57.164;-2.120;2023-04-16T13:01:38;3.17;;;0.60;;
22549;SDS011;11441;57.164;-2.120;2023-04-16T13:04:05;6.03;;;1.23;;
22549;SDS011;11441;57.164;-2.120;2023-04-16T13:06:33;7.05;;;1.20;;
22549;SDS011;11441;57.164;-2.120;2023-04-16T13:09:18;2.78;;;0.82;;
22549;SDS011;11441;57.164;-2.120;2023-04-16T13:11:45;3.03;;;0.70;;
22549;SDS011;11441;57.164;-2.120;2023-04-16T13:14:12;1.27;;;0.73;;
22549;SDS011;11441;57.164;-2.120;2023-04-16T13:16:39;3.83;;;1.00;;
22549;SDS011;11441;57.164;-2.120;2023-04-16T13:19:06;3.42;;;0.80;;
22549;SDS011;11441;57.164;-2.120;2023-04-16T13:21:33;8.68;;;1.13;;
22549;SDS011;11441;57.164;-2.120;2023-04-16T13:24:00;4.40;;;0.60;;
22549;SDS011;11441;57.164;-2.120;2023-04-16T13:26:26;2.13;;;0.68;;
22549;SDS011;11441;57.164;-2.120;2023-04-16T13:28:53;2.92;;;0.60;;
22549;SDS011;11441;57.164;-2.120;2023-04-16T13:31:20;2.15;;;0.63;;
22549;SDS011;11441;57.164;-2.120;2023-04-16T13:33:48;3.97;;;0.75;;
22549;SDS011;11441;57.164;-2.120;2023-04-16T13:36:16;6.70;;;0.80;;
22549;SDS011;11441;57.164;-2.120;2023-04-16T13:38:43;3.90;;;0.80;;
22549;SDS011;11441;57.164;-2.120;2023-04-16T13:41:10;2.15;;;0.65;;
22549;SDS011;11441;57.164;-2.120;2023-04-16T13:43:37;4.78;;;0.73;;
22549;SDS011;11441;57.164;-2.120;2023-04-16T13:46:04;4.38;;;0.82;;
22549;SDS011;11441;57.164;-2.120;2023-04-16T13:48:31;1.85;;;0.68;;
22549;SDS011;11441;57.164;-2.120;2023-04-16T13:50:58;3.20;;;0.95;;
22549;SDS011;11441;57.164;-2.120;2023-04-16T13:53:25;8.32;;;1.02;;
22549;SDS011;11441;57.164;-2.120;2023-04-16T13:55:52;4.03;;;1.00;;
22549;SDS011;11441;57.164;-2.120;2023-04-16T13:58:18;3.65;;;0.57;;
22549;SDS011;11441;57.164;-2.120;2023-04-16T14:00:45;4.57;;;1.20;;
22549;SDS011;11441;57.164;-2.120;2023-04-16T14:03:12;3.00;;;0.63;;
22549;SDS011;11441;57.164;-2.120;2023-04-16T14:05:39;4.75;;;1.00;;
22549;SDS011;11441;57.164;-2.120;2023-04-16T14:08:06;2.45;;;0.93;;
22549;SDS011;11441;57.164;-2.120;2023-04-16T14:10:33;6.80;;;1.23;;
22549;SDS011;11441;57.164;-2.120;2023-04-16T14:13:00;4.97;;;1.17;;
22549;SDS011;11441;57.164;-2.120;2023-04-16T14:15:27;2.10;;;1.35;;
22549;SDS011;11441;57.164;-2.120;2023-04-16T14:17:55;5.35;;;1.20;;
22549;SDS011;11441;57.164;-2.120;2023-04-16T14:20:22;3.47;;;1.30;;
22549;SDS011;11441;57.164;-2.120;2023-04-16T14:22:49;6.03;;;1.67;;
22549;SDS011;11441;57.164;-2.120;2023-04-16T14:25:16;7.20;;;1.75;;
22549;SDS011;11441;57.164;-2.120;2023-04-16T14:27:42;2.53;;;1.33;;
22549;SDS011;11441;57.164;-2.120;2023-04-16T14:30:09;5.55;;;1.63;;
22549;SDS011;11441;57.164;-2.120;2023-04-16T14:32:36;4.68;;;1.55;;
22549;SDS011;11441;57.164;-2.120;2023-04-16T14:35:03;4.85;;;1.77;;
22549;SDS011;11441;57.164;-2.120;2023-04-16T14:37:31;2.30;;;1.15;;
22549;SDS011;11441;57.164;-2.120;2023-04-16T14:39:57;2.00;;;1.08;;
22549;SDS011;11441;57.164;-2.120;2023-04-16T14:42:26;3.17;;;1.20;;
22549;SDS011;11441;57.164;-2.120;2023-04-16T14:44:53;3.45;;;0.90;;
22549;SDS011;11441;57.164;-2.120;2023-04-16T14:47:19;2.80;;;0.82;;
22549;SDS011;11441;57.164;-2.120;2023-04-16T14:49:46;3.75;;;1.15;;
22549;SDS011;11441;57.164;-2.120;2023-04-16T14:52:13;5.25;;;0.90;;
22549;SDS011;11441;57.164;-2.120;2023-04-16T14:54:40;3.15;;;1.20;;
22549;SDS011;11441;57.164;-2.120;2023-04-16T14:57:07;5.35;;;1.23;;
22549;SDS011;11441;57.164;-2.120;2023-04-16T14:59:33;2.88;;;0.93;;
22549;SDS011;11441;57.164;-2.120;2023-04-16T15:02:00;2.85;;;1.25;;
22549;SDS011;11441;57.164;-2.120;2023-04-16T15:04:27;5.50;;;1.83;;
22549;SDS011;11441;57.164;-2.120;2023-04-16T15:06:55;4.00;;;1.30;;
22549;SDS011;11441;57.164;-2.120;2023-04-16T15:09:24;2.42;;;1.35;;